createdAt,value
2019-03-13T00:01:28.824Z,35.90
2019-03-13T00:03:59.381Z,34.57
2019-03-13T00:06:29.943Z,34.20
2019-03-13T00:09:00.451Z,35.43
2019-03-13T00:11:34.321Z,33.37
2019-03-13T00:14:04.830Z,34.60
2019-03-13T00:16:35.400Z,36.57
2019-03-13T00:19:05.959Z,35.63
2019-03-13T00:21:36.512Z,37.40
2019-03-13T00:24:07.264Z,35.87
2019-03-13T00:26:38.113Z,36.90
2019-03-13T00:29:08.530Z,36.93
2019-03-13T00:31:39.145Z,35.67
2019-03-13T00:34:09.686Z,35.80
2019-03-13T00:36:40.295Z,36.23
2019-03-13T00:39:10.720Z,35.77
2019-03-13T00:41:41.295Z,36.07
2019-03-13T00:44:12.687Z,35.77
2019-03-13T00:46:43.169Z,35.60
2019-03-13T00:49:13.794Z,34.77
2019-03-13T00:51:44.161Z,35.53
2019-03-13T00:54:14.709Z,35.10
2019-03-13T00:56:45.175Z,33.93
2019-03-13T00:59:16.574Z,34.63
2019-03-13T01:02:00.345Z,33.73
2019-03-13T01:04:34.641Z,32.00
2019-03-13T01:07:07.709Z,34.03
2019-03-13T01:09:38.469Z,33.20
2019-03-13T01:12:09.137Z,33.47
2019-03-13T01:14:42.328Z,33.37
2019-03-13T01:17:12.970Z,30.80
2019-03-13T01:19:43.613Z,32.17
2019-03-13T01:22:14.005Z,33.93
2019-03-13T01:24:45.488Z,31.67
2019-03-13T01:27:16.012Z,33.13
2019-03-13T01:29:46.433Z,30.63
2019-03-13T01:32:36.026Z,29.50
2019-03-13T01:35:11.971Z,30.10
2019-03-13T01:37:42.395Z,32.33
2019-03-13T01:40:14.129Z,31.33
2019-03-13T01:42:47.168Z,28.30
2019-03-13T01:45:17.748Z,30.77
2019-03-13T01:47:48.273Z,30.10
2019-03-13T01:50:18.777Z,31.50
2019-03-13T01:52:49.383Z,29.57
2019-03-13T01:55:19.908Z,29.17
2019-03-13T01:57:50.346Z,30.10
2019-03-13T02:00:20.908Z,30.77
2019-03-13T02:02:51.328Z,30.70
2019-03-13T02:05:21.838Z,32.27
2019-03-13T02:07:52.290Z,30.33
2019-03-13T02:10:22.915Z,30.60
2019-03-13T02:12:53.531Z,29.53
2019-03-13T02:15:25.355Z,32.07
2019-03-13T02:17:55.935Z,31.97
2019-03-13T02:20:26.718Z,32.60
2019-03-13T02:22:57.265Z,34.27
2019-03-13T02:25:28.152Z,36.83
2019-03-13T02:27:58.993Z,37.53
2019-03-13T02:30:31.998Z,36.73
2019-03-13T02:33:02.642Z,37.97
2019-03-13T02:35:33.083Z,36.57
2019-03-13T02:38:03.679Z,34.13
2019-03-13T02:40:34.166Z,35.07
2019-03-13T02:43:04.907Z,34.63
2019-03-13T02:45:35.469Z,35.77
2019-03-13T02:48:06.160Z,34.90
2019-03-13T02:50:36.587Z,34.70
2019-03-13T02:53:07.395Z,36.27
2019-03-13T02:55:37.998Z,36.03
2019-03-13T02:58:08.528Z,36.23
2019-03-13T03:00:50.658Z,37.47
2019-03-13T03:03:32.766Z,35.70
2019-03-13T03:06:03.317Z,37.37
2019-03-13T03:08:34.842Z,36.83
2019-03-13T03:11:05.357Z,36.33
2019-03-13T03:13:35.829Z,35.40
2019-03-13T03:16:06.601Z,37.00
2019-03-13T03:18:37.109Z,35.67
2019-03-13T03:21:07.760Z,33.27
2019-03-13T03:23:38.296Z,34.67
2019-03-13T03:26:09.034Z,35.07
2019-03-13T03:28:40.838Z,34.30
2019-03-13T03:31:11.519Z,33.03
2019-03-13T03:33:41.990Z,32.03
2019-03-13T03:36:12.637Z,33.63
2019-03-13T03:38:44.142Z,33.63
2019-03-13T03:41:14.591Z,33.77
2019-03-13T03:43:45.180Z,32.57
2019-03-13T03:46:15.697Z,33.10
2019-03-13T03:48:46.608Z,33.03
2019-03-13T03:51:18.171Z,30.73
2019-03-13T03:53:48.778Z,30.77
2019-03-13T03:56:19.465Z,32.47
2019-03-13T03:58:50.029Z,30.43
2019-03-13T04:01:20.726Z,29.73
2019-03-13T04:03:51.255Z,28.17
2019-03-13T04:06:21.885Z,30.30
2019-03-13T04:08:53.887Z,29.87
2019-03-13T04:11:24.392Z,29.40
2019-03-13T04:13:54.977Z,28.13
2019-03-13T04:16:25.571Z,28.10
2019-03-13T04:18:57.177Z,28.67
2019-03-13T04:21:30.000Z,27.03
2019-03-13T04:24:00.572Z,26.93
2019-03-13T04:26:31.096Z,27.23
2019-03-13T04:29:01.638Z,26.43
2019-03-13T04:31:32.182Z,26.37
2019-03-13T04:34:02.732Z,24.03
2019-03-13T04:36:33.221Z,23.43
2019-03-13T04:39:04.999Z,23.70
2019-03-13T04:41:36.188Z,23.00
2019-03-13T04:44:06.881Z,23.13
2019-03-13T04:46:37.408Z,21.67
2019-03-13T04:49:07.822Z,26.17
2019-03-13T04:51:41.530Z,23.93
2019-03-13T04:54:12.281Z,22.00
2019-03-13T04:56:42.851Z,22.97
2019-03-13T04:59:13.315Z,23.03
2019-03-13T05:01:44.003Z,23.50
2019-03-13T05:04:14.386Z,22.80
2019-03-13T05:06:45.181Z,21.67
2019-03-13T05:09:18.509Z,22.80
2019-03-13T05:11:49.556Z,22.23
2019-03-13T05:14:20.163Z,22.70
2019-03-13T05:16:51.864Z,22.33
2019-03-13T05:19:22.528Z,20.97
2019-03-13T05:21:53.317Z,21.67
2019-03-13T05:24:23.758Z,21.10
2019-03-13T05:26:54.343Z,21.00
2019-03-13T05:29:25.182Z,21.03
2019-03-13T05:31:55.840Z,19.37
2019-03-13T05:34:29.166Z,20.27
2019-03-13T05:36:59.809Z,20.50
2019-03-13T05:39:30.446Z,20.63
2019-03-13T05:42:01.027Z,20.30
2019-03-13T05:44:31.497Z,20.13
2019-03-13T05:47:02.058Z,19.77
2019-03-13T05:49:32.511Z,20.10
2019-03-13T05:52:03.112Z,19.57
2019-03-13T05:54:33.737Z,19.87
2019-03-13T05:57:04.405Z,18.10
2019-03-13T05:59:35.028Z,19.40
2019-03-13T06:02:05.642Z,17.30
2019-03-13T06:04:36.370Z,17.30
2019-03-13T06:07:08.050Z,18.13
2019-03-13T06:09:38.682Z,17.37
2019-03-13T06:12:12.907Z,18.40
2019-03-13T06:14:43.476Z,17.70
2019-03-13T06:17:13.893Z,17.93
2019-03-13T06:19:44.419Z,17.33
2019-03-13T06:22:14.878Z,17.20
2019-03-13T06:24:45.578Z,17.17
2019-03-13T06:27:16.043Z,17.03
2019-03-13T06:29:46.608Z,17.73
2019-03-13T06:32:17.040Z,18.30
2019-03-13T06:34:47.884Z,18.83
2019-03-13T06:37:18.423Z,18.43
2019-03-13T06:39:49.044Z,18.37
2019-03-13T06:42:19.776Z,18.77
2019-03-13T06:44:50.670Z,19.37
2019-03-13T06:47:21.348Z,18.80
2019-03-13T06:49:52.988Z,18.07
2019-03-13T06:52:23.542Z,18.73
2019-03-13T06:54:54.199Z,18.53
2019-03-13T06:57:27.113Z,18.13
2019-03-13T07:00:16.732Z,18.90
2019-03-13T07:02:52.874Z,17.47
2019-03-13T07:05:29.549Z,17.83
2019-03-13T07:08:19.012Z,16.60
2019-03-13T07:11:09.196Z,17.10
2019-03-13T07:13:56.219Z,16.17
2019-03-13T07:16:45.758Z,16.90
2019-03-13T07:19:35.351Z,17.23
2019-03-13T07:22:15.755Z,17.27
2019-03-13T07:24:59.042Z,16.53
2019-03-13T07:27:45.548Z,16.77
2019-03-13T07:30:35.281Z,16.13
2019-03-13T07:33:24.987Z,17.27
2019-03-13T07:36:14.663Z,16.80
2019-03-13T07:39:03.634Z,16.33
2019-03-13T07:41:49.490Z,17.20
2019-03-13T07:44:39.088Z,16.20
2019-03-13T07:47:22.346Z,15.80
2019-03-13T07:50:11.999Z,16.10
2019-03-13T07:53:01.748Z,14.73
2019-03-13T07:55:49.903Z,14.40
2019-03-13T07:58:29.427Z,15.27
2019-03-13T08:01:19.117Z,15.80
2019-03-13T08:04:08.766Z,14.07
2019-03-13T08:06:54.380Z,14.13
2019-03-13T08:09:35.192Z,13.53
2019-03-13T08:12:19.414Z,13.43
2019-03-13T08:15:09.111Z,12.90
2019-03-13T08:17:58.700Z,9.83
2019-03-13T08:20:48.362Z,11.07
2019-03-13T08:23:38.031Z,10.60
2019-03-13T08:29:21.201Z,8.90
2019-03-13T08:32:10.782Z,8.10
2019-03-13T08:34:49.715Z,9.87
2019-03-13T08:37:33.331Z,9.83
2019-03-13T08:40:23.259Z,10.23
2019-03-13T08:43:01.061Z,10.23
2019-03-13T08:45:50.760Z,9.90
2019-03-13T08:48:40.485Z,10.17
2019-03-13T08:51:30.103Z,10.47
2019-03-13T08:54:19.835Z,10.00
2019-03-13T08:56:57.475Z,10.73
2019-03-13T08:59:41.026Z,9.43
2019-03-13T09:02:19.593Z,10.00
2019-03-13T09:05:09.259Z,10.43
2019-03-13T09:07:59.257Z,10.03
2019-03-13T09:10:49.239Z,9.13
2019-03-13T09:13:35.100Z,9.90
2019-03-13T09:16:19.823Z,9.63
2019-03-13T09:18:59.391Z,9.57
2019-03-13T09:21:48.859Z,9.07
2019-03-13T09:24:38.208Z,9.20
2019-03-13T09:27:27.664Z,10.17
2019-03-13T09:30:17.166Z,8.70
2019-03-13T09:32:57.838Z,9.83
2019-03-13T09:35:42.240Z,10.30
2019-03-13T09:38:29.331Z,9.43
2019-03-13T09:41:19.130Z,9.50
2019-03-13T09:44:08.141Z,8.80
2019-03-13T09:46:57.822Z,9.57
2019-03-13T09:49:47.556Z,9.70
2019-03-13T09:52:31.940Z,9.03
2019-03-13T09:55:21.710Z,9.13
2019-03-13T09:58:11.394Z,9.47
2019-03-13T10:01:00.966Z,9.20
2019-03-13T10:03:38.201Z,9.90
2019-03-13T10:06:27.745Z,9.97
2019-03-13T10:09:11.238Z,9.87
2019-03-13T10:11:47.497Z,10.60
2019-03-13T10:14:30.007Z,9.97
2019-03-13T10:17:11.059Z,10.60
2019-03-13T10:19:48.907Z,10.03
2019-03-13T10:22:39.617Z,11.00
2019-03-13T10:25:29.391Z,9.27
2019-03-13T10:28:12.645Z,10.40
2019-03-13T10:31:02.301Z,11.03
2019-03-13T10:33:37.776Z,11.50
2019-03-13T10:36:27.482Z,10.87
2019-03-13T10:39:09.589Z,12.20
2019-03-13T10:41:58.760Z,12.37
2019-03-13T10:44:48.692Z,12.07
2019-03-13T10:47:38.314Z,13.30
2019-03-13T10:50:17.071Z,13.30
2019-03-13T10:53:01.183Z,12.63
2019-03-13T10:55:47.210Z,13.93
2019-03-13T10:58:37.784Z,13.97
2019-03-13T11:01:20.917Z,14.50
2019-03-13T11:04:10.594Z,14.23
2019-03-13T11:07:00.305Z,13.20
2019-03-13T11:09:50.007Z,13.70
2019-03-13T11:12:35.452Z,14.30
2019-03-13T11:15:15.050Z,13.77
2019-03-13T11:18:04.723Z,15.37
2019-03-13T11:20:54.510Z,14.17
2019-03-13T11:23:34.527Z,13.73
2019-03-13T11:26:24.361Z,14.67
2019-03-13T11:29:07.777Z,13.80
2019-03-13T11:31:57.657Z,13.77
2019-03-13T11:34:47.261Z,12.80
2019-03-13T11:37:32.529Z,14.47
2019-03-13T11:40:22.175Z,13.80
2019-03-13T11:43:08.365Z,14.50
2019-03-13T11:45:52.205Z,12.93
2019-03-13T11:48:41.653Z,14.87
2019-03-13T11:51:31.447Z,14.17
2019-03-13T11:54:09.017Z,13.40
2019-03-13T11:56:56.605Z,15.10
2019-03-13T11:59:46.339Z,14.57
2019-03-13T12:02:36.100Z,14.57
2019-03-13T12:05:27.316Z,15.67
2019-03-13T12:08:11.134Z,14.67
2019-03-13T12:11:00.077Z,14.70
2019-03-13T12:13:47.813Z,14.70
2019-03-13T12:16:26.336Z,15.43
2019-03-13T12:19:11.547Z,15.27
2019-03-13T12:21:56.637Z,15.90
2019-03-13T12:24:46.412Z,15.03
2019-03-13T12:27:36.138Z,15.00
2019-03-13T12:30:21.943Z,14.93
2019-03-13T12:33:11.759Z,14.73
2019-03-13T12:35:53.908Z,13.90
2019-03-13T12:38:43.527Z,15.23
2019-03-13T12:41:33.220Z,15.00
2019-03-13T12:44:11.972Z,14.30
2019-03-13T12:46:54.234Z,15.57
2019-03-13T12:49:37.406Z,15.43
2019-03-13T12:52:17.433Z,15.30
2019-03-13T12:55:07.095Z,16.17
2019-03-13T12:57:52.886Z,16.00
2019-03-13T13:00:43.429Z,15.77
2019-03-13T13:03:22.121Z,15.33
2019-03-13T13:06:11.847Z,14.57
2019-03-13T13:09:01.539Z,15.27
2019-03-13T13:11:53.835Z,15.33
2019-03-13T13:14:39.626Z,14.27
2019-03-13T13:17:29.233Z,14.60
2019-03-13T13:20:00.472Z,13.90
2019-03-13T13:22:31.007Z,13.77
2019-03-13T13:25:01.503Z,12.10
2019-03-13T13:27:35.586Z,13.83
2019-03-13T13:30:07.326Z,12.37
2019-03-13T13:32:37.997Z,11.77
2019-03-13T13:35:09.577Z,12.40
2019-03-13T13:37:40.291Z,11.83
2019-03-13T13:40:10.954Z,12.10
2019-03-13T13:42:41.581Z,12.10
2019-03-13T13:45:40.028Z,11.37
2019-03-13T13:48:11.021Z,11.20
2019-03-13T13:50:41.610Z,10.47
2019-03-13T13:53:12.133Z,10.87
2019-03-13T13:55:42.702Z,10.67
2019-03-13T13:58:13.248Z,11.00
2019-03-13T14:00:43.875Z,10.00
2019-03-13T14:03:14.587Z,10.40
2019-03-13T14:05:45.239Z,10.17
2019-03-13T14:08:15.822Z,9.47
2019-03-13T14:10:46.401Z,9.00
2019-03-13T14:13:17.871Z,9.40
2019-03-13T14:15:48.390Z,9.70
2019-03-13T14:18:19.104Z,8.60
2019-03-13T14:20:49.728Z,8.20
2019-03-13T14:23:20.211Z,8.30
2019-03-13T14:25:50.669Z,8.70
2019-03-13T14:28:21.201Z,8.77
2019-03-13T14:30:53.238Z,8.83
2019-03-13T14:33:23.730Z,7.93
2019-03-13T14:35:54.456Z,8.13
2019-03-13T14:38:24.871Z,7.97
2019-03-13T14:40:55.531Z,8.70
2019-03-13T14:43:26.079Z,9.10
2019-03-13T14:45:56.648Z,9.03
2019-03-13T14:48:27.937Z,8.13
2019-03-13T14:50:58.438Z,8.13
2019-03-13T14:53:28.998Z,8.27
2019-03-13T14:55:59.388Z,7.90
2019-03-13T14:58:30.018Z,7.90
2019-03-13T15:01:00.719Z,7.57
2019-03-13T15:03:32.717Z,8.77
2019-03-13T15:06:03.362Z,7.83
2019-03-13T15:08:35.107Z,6.60
2019-03-13T15:11:24.787Z,6.60
2019-03-13T15:13:55.437Z,6.33
2019-03-13T15:16:26.154Z,5.30
2019-03-13T15:18:56.895Z,7.07
2019-03-13T15:21:27.564Z,7.00
2019-03-13T15:23:59.333Z,7.07
2019-03-13T15:26:29.874Z,5.90
2019-03-13T15:29:00.955Z,5.93
2019-03-13T15:31:31.622Z,5.90
2019-03-13T15:34:02.271Z,5.80
2019-03-13T15:36:33.039Z,7.13
2019-03-13T15:39:04.128Z,6.60
2019-03-13T15:41:36.620Z,8.17
2019-03-13T15:44:07.416Z,8.70
2019-03-13T15:46:37.962Z,8.40
2019-03-13T15:49:08.507Z,6.60
2019-03-13T15:51:39.300Z,7.33
2019-03-13T15:54:09.766Z,7.77
2019-03-13T15:56:40.351Z,6.70
2019-03-13T15:59:10.906Z,7.33
2019-03-13T16:01:41.535Z,7.57
2019-03-13T16:04:12.208Z,7.83
2019-03-13T16:06:42.805Z,7.50
2019-03-13T16:09:13.587Z,8.43
2019-03-13T16:11:46.822Z,8.40
2019-03-13T16:14:17.536Z,7.87
2019-03-13T16:16:48.362Z,8.90
2019-03-13T16:19:19.005Z,8.07
2019-03-13T16:21:49.531Z,7.90
2019-03-13T16:24:20.129Z,8.93
2019-03-13T16:26:50.869Z,8.33
2019-03-13T16:29:21.608Z,9.47
2019-03-13T16:31:52.336Z,10.77
2019-03-13T16:34:23.216Z,9.40
2019-03-13T16:36:53.987Z,9.87
2019-03-13T16:39:24.539Z,9.60
2019-03-13T16:41:55.111Z,11.47
2019-03-13T16:44:26.704Z,11.83
2019-03-13T16:46:57.474Z,13.43
2019-03-13T16:49:28.157Z,12.90
2019-03-13T16:51:58.937Z,13.30
2019-03-13T16:54:29.566Z,11.97
2019-03-13T16:57:00.498Z,12.30
2019-03-13T16:59:31.287Z,12.30
2019-03-13T17:02:02.429Z,12.20
2019-03-13T17:04:33.221Z,13.07
2019-03-13T17:07:03.877Z,14.60
2019-03-13T17:09:34.755Z,14.20
2019-03-13T17:12:05.709Z,15.83
2019-03-13T17:14:36.710Z,16.10
2019-03-13T17:17:10.417Z,14.50
2019-03-13T17:19:41.397Z,15.23
2019-03-13T17:22:13.358Z,15.60
2019-03-13T17:24:44.105Z,16.60
2019-03-13T17:27:17.299Z,17.67
2019-03-13T17:29:47.924Z,17.10
2019-03-13T17:32:18.552Z,18.93
2019-03-13T17:34:49.394Z,21.17
2019-03-13T17:37:20.219Z,22.33
2019-03-13T17:39:51.576Z,26.13
2019-03-13T17:42:22.288Z,29.20
2019-03-13T17:44:53.048Z,30.70
2019-03-13T17:47:32.068Z,31.80
2019-03-13T17:50:02.881Z,30.20
2019-03-13T17:52:33.703Z,32.80
2019-03-13T17:55:05.085Z,33.80
2019-03-13T17:57:36.128Z,34.83
2019-03-13T18:00:09.658Z,33.80
2019-03-13T18:02:40.766Z,33.57
2019-03-13T18:05:11.769Z,36.63
2019-03-13T18:07:42.713Z,41.40
2019-03-13T18:10:15.579Z,43.77
2019-03-13T18:12:47.349Z,41.60
2019-03-13T18:15:18.088Z,37.57
2019-03-13T18:17:48.825Z,37.77
2019-03-13T18:20:19.615Z,38.17
2019-03-13T18:22:50.657Z,39.97
2019-03-13T18:25:21.666Z,39.37
2019-03-13T18:27:52.232Z,39.67
2019-03-13T18:30:23.788Z,40.27
2019-03-13T18:32:54.537Z,41.73
2019-03-13T18:35:29.307Z,45.57
2019-03-13T18:38:07.180Z,51.02
2019-03-13T18:40:43.127Z,53.92
2019-03-13T18:43:17.735Z,44.90
2019-03-13T18:45:48.566Z,42.77
2019-03-13T18:48:19.297Z,40.67
2019-03-13T18:50:50.007Z,37.80
2019-03-13T18:53:20.782Z,37.47
2019-03-13T18:55:51.650Z,38.03
2019-03-13T18:58:23.700Z,40.37
2019-03-13T19:00:58.089Z,37.27
2019-03-13T19:03:27.606Z,38.10
2019-03-13T19:06:00.087Z,38.10
2019-03-13T19:08:31.276Z,37.10
2019-03-13T19:11:02.171Z,35.53
2019-03-13T19:13:33.871Z,37.57
2019-03-13T19:16:04.618Z,38.87
2019-03-13T19:18:35.387Z,37.13
2019-03-13T19:21:06.287Z,38.80
2019-03-13T19:23:37.979Z,39.97
2019-03-13T19:26:13.510Z,40.70
2019-03-13T19:28:44.368Z,39.87
2019-03-13T19:31:15.270Z,41.93
2019-03-13T19:33:46.127Z,41.80
2019-03-13T19:36:16.875Z,41.37
2019-03-13T19:38:50.775Z,40.20
2019-03-13T19:41:21.676Z,49.35
2019-03-13T19:43:54.978Z,40.97
2019-03-13T19:46:25.792Z,40.43
2019-03-13T19:48:57.541Z,38.83
2019-03-13T19:51:29.357Z,40.17
2019-03-13T19:54:00.812Z,38.83
2019-03-13T19:56:34.934Z,39.00
2019-03-13T19:59:06.550Z,38.40
2019-03-13T20:01:37.637Z,37.97
2019-03-13T20:04:08.983Z,42.83
2019-03-13T20:06:42.346Z,46.98
2019-03-13T20:09:15.288Z,48.83
2019-03-13T20:11:45.854Z,41.13
2019-03-13T20:14:17.093Z,41.67
2019-03-13T20:16:47.894Z,40.37
2019-03-13T20:19:19.777Z,40.77
2019-03-13T20:21:50.516Z,41.80
2019-03-13T20:24:24.383Z,39.63
2019-03-13T20:26:55.339Z,42.20
2019-03-13T20:29:27.328Z,40.43
2019-03-13T20:31:58.777Z,40.27
2019-03-13T20:34:29.618Z,40.17
2019-03-13T20:37:00.396Z,42.03
2019-03-13T20:39:31.084Z,38.23
2019-03-13T20:42:01.919Z,41.23
2019-03-13T20:44:32.818Z,39.43
2019-03-13T20:47:07.888Z,39.70
2019-03-13T20:49:38.726Z,39.67
2019-03-13T20:52:13.173Z,40.37
2019-03-13T20:54:43.934Z,41.13
2019-03-13T20:57:15.687Z,37.77
2019-03-13T20:59:46.494Z,39.63
2019-03-13T21:02:17.211Z,38.17
2019-03-13T21:04:48.078Z,40.83
2019-03-13T21:07:18.647Z,41.67
2019-03-13T21:09:49.198Z,41.10
2019-03-13T21:12:22.940Z,40.80
2019-03-13T21:14:52.211Z,41.23
2019-03-13T21:17:22.946Z,41.57
2019-03-13T21:19:53.448Z,41.13
2019-03-13T21:22:24.060Z,41.83
2019-03-13T21:24:55.857Z,41.37
2019-03-13T21:27:26.420Z,41.20
2019-03-13T21:29:56.875Z,40.77
2019-03-13T21:32:27.289Z,42.30
2019-03-13T21:34:57.856Z,39.67
2019-03-13T21:37:28.412Z,40.23
2019-03-13T21:39:58.884Z,37.93
2019-03-13T21:42:29.535Z,39.30
2019-03-13T21:45:02.848Z,37.20
2019-03-13T21:47:33.531Z,36.47
2019-03-13T21:50:04.628Z,35.97
2019-03-13T21:52:35.266Z,34.80
2019-03-13T21:55:06.195Z,34.00
2019-03-13T21:57:36.807Z,34.30
2019-03-13T22:00:10.869Z,35.53
2019-03-13T22:02:42.896Z,37.40
2019-03-13T22:05:25.678Z,37.23
2019-03-13T22:07:49.015Z,40.63
2019-03-13T22:10:20.738Z,41.10
2019-03-13T22:12:51.579Z,40.37
2019-03-13T22:15:22.467Z,39.60
2019-03-13T22:17:53.009Z,39.47
2019-03-13T22:20:23.623Z,38.80
2019-03-13T22:22:54.096Z,35.33
2019-03-13T22:25:24.658Z,44.77
2019-03-13T22:27:55.088Z,39.37
2019-03-13T22:30:28.596Z,35.47
2019-03-13T22:32:58.079Z,34.97
2019-03-13T22:35:28.500Z,34.60
2019-03-13T22:37:59.055Z,36.10
2019-03-13T22:40:29.500Z,35.03
2019-03-13T22:43:00.273Z,32.63
2019-03-13T22:45:30.905Z,33.03
2019-03-13T22:48:01.375Z,30.67
2019-03-13T22:50:31.915Z,31.07
2019-03-13T22:53:02.436Z,32.47
2019-03-13T22:55:32.915Z,34.00
2019-03-13T22:58:03.376Z,35.33
2019-03-13T23:00:57.545Z,37.97
2019-03-13T23:03:30.979Z,38.27
2019-03-13T23:06:01.876Z,37.57
2019-03-13T23:08:32.254Z,36.70
2019-03-13T23:11:02.684Z,37.47
2019-03-13T23:13:33.397Z,35.47
2019-03-13T23:16:03.849Z,37.37
2019-03-13T23:18:34.521Z,35.67
2019-03-13T23:21:05.209Z,35.83
2019-03-13T23:23:35.678Z,35.40
2019-03-13T23:26:06.220Z,37.23
2019-03-13T23:28:36.934Z,38.73
2019-03-13T23:31:07.495Z,36.37
2019-03-13T23:33:37.941Z,34.53
2019-03-13T23:36:08.620Z,36.50
2019-03-13T23:38:39.141Z,35.60
2019-03-13T23:41:09.691Z,35.37
2019-03-13T23:43:40.318Z,34.43
2019-03-13T23:46:10.745Z,32.70
2019-03-13T23:48:42.255Z,30.60
2019-03-13T23:51:12.709Z,30.73
2019-03-13T23:53:43.087Z,29.57
2019-03-13T23:56:13.677Z,28.13
2019-03-13T23:58:45.816Z,27.37
